createdAt,value
2023-02-11T00:01:34.672Z,103443.91
2023-02-11T00:04:03.310Z,103440.63
2023-02-11T00:06:32.877Z,103438.00
2023-02-11T00:09:01.991Z,103445.63
2023-02-11T00:11:30.533Z,103450.16
2023-02-11T00:14:01.240Z,103442.88
2023-02-11T00:16:28.510Z,103428.78
2023-02-11T00:18:55.788Z,103434.25
2023-02-11T00:21:25.825Z,103426.19
2023-02-11T00:23:54.906Z,103427.09
2023-02-11T00:26:26.028Z,103428.78
2023-02-11T00:28:53.894Z,103426.63
2023-02-11T00:31:23.492Z,103434.72
2023-02-11T00:33:50.640Z,103431.53
2023-02-11T00:36:25.152Z,103433.13
2023-02-11T00:38:54.347Z,103418.34
2023-02-11T00:41:22.144Z,103419.25
2023-02-11T00:43:49.761Z,103417.44
2023-02-11T00:46:17.045Z,103412.09
2023-02-11T00:48:44.600Z,103417.56
2023-02-11T00:51:12.139Z,103409.50
2023-02-11T00:53:39.435Z,103414.16
2023-02-11T00:56:06.861Z,103410.84
2023-02-11T00:58:33.910Z,103408.22
2023-02-11T01:01:00.930Z,103419.47
2023-02-11T01:03:28.184Z,103411.53
2023-02-11T01:05:55.921Z,103424.13
2023-02-11T01:08:23.245Z,103421.31
2023-02-11T01:11:03.824Z,103430.97
2023-02-11T01:13:33.792Z,103428.34
2023-02-11T01:16:01.150Z,103420.72
2023-02-11T01:18:28.524Z,103422.31
2023-02-11T01:20:55.872Z,103420.84
2023-02-11T01:23:22.843Z,103412.88
2023-02-11T01:25:51.080Z,103413.78
2023-02-11T01:28:24.803Z,103418.22
2023-02-11T01:30:52.617Z,103421.75
2023-02-11T01:33:20.404Z,103425.38
2023-02-11T01:35:47.725Z,103418.34
2023-02-11T01:38:19.150Z,103417.53
2023-02-11T01:41:08.590Z,103410.50
2023-02-11T01:43:43.561Z,103405.38
2023-02-11T01:46:29.029Z,103403.69
2023-02-11T01:49:12.472Z,103403.69
2023-02-11T01:51:46.732Z,103403.94
2023-02-11T01:54:40.652Z,103398.56
2023-02-11T01:57:24.807Z,103417.00
2023-02-11T02:00:26.411Z,103415.84
2023-02-11T02:03:17.171Z,103425.59
2023-02-11T02:06:02.688Z,103415.94
2023-02-11T02:09:06.058Z,103409.28
2023-02-11T02:11:33.307Z,103405.97
2023-02-11T02:14:00.335Z,103392.69
2023-02-11T02:16:35.796Z,103399.72
2023-02-11T02:19:59.649Z,103417.13
2023-02-11T02:23:15.014Z,103404.16
2023-02-11T02:25:56.949Z,103400.63
2023-02-11T02:29:05.081Z,103405.88
2023-02-11T02:31:50.451Z,103412.00
2023-02-11T02:34:36.505Z,103410.41
2023-02-11T02:37:32.226Z,103406.78
2023-02-11T02:40:06.987Z,103404.59
2023-02-11T02:42:34.370Z,103402.69
2023-02-11T02:45:01.902Z,103403.38
2023-02-11T02:47:28.974Z,103409.63
2023-02-11T02:49:55.956Z,103412.13
2023-02-11T02:53:03.895Z,103405.19
2023-02-11T02:56:26.019Z,103404.28
2023-02-11T02:59:11.570Z,103387.78
2023-02-11T03:02:04.503Z,103389.50
2023-02-11T03:04:40.077Z,103399.16
2023-02-11T03:07:33.259Z,103411.53
2023-02-11T03:10:19.299Z,103406.19
2023-02-11T03:12:47.661Z,103402.78
2023-02-11T03:15:17.595Z,103402.00
2023-02-11T03:17:48.670Z,103388.13
2023-02-11T03:20:20.119Z,103372.22
2023-02-11T03:22:52.978Z,103391.44
2023-02-11T03:25:22.710Z,103399.28
2023-02-11T03:28:27.664Z,103411.53
2023-02-11T03:31:27.142Z,103406.31
2023-02-11T03:34:09.253Z,103407.34
2023-02-11T03:36:52.108Z,103393.56
2023-02-11T03:39:31.624Z,103385.41
2023-02-11T03:42:02.006Z,103383.91
2023-02-11T03:44:36.839Z,103387.34
2023-02-11T03:47:07.866Z,103396.75
2023-02-11T03:49:38.305Z,103396.31
2023-02-11T03:52:08.218Z,103387.66
2023-02-11T03:54:35.868Z,103384.81
2023-02-11T03:57:04.086Z,103388.25
2023-02-11T03:59:31.104Z,103387.44
2023-02-11T04:01:59.633Z,103400.72
2023-02-11T04:04:26.606Z,103391.06
2023-02-11T04:06:53.764Z,103393.69
2023-02-11T04:09:20.738Z,103391.06
2023-02-11T04:11:47.709Z,103391.06
2023-02-11T04:14:14.671Z,103390.28
2023-02-11T04:16:41.734Z,103392.09
2023-02-11T04:19:08.754Z,103390.97
2023-02-11T04:21:35.724Z,103377.91
2023-02-11T04:24:04.169Z,103379.50
2023-02-11T04:26:31.229Z,103383.13
2023-02-11T04:28:58.184Z,103384.81
2023-02-11T04:31:25.363Z,103386.66
2023-02-11T04:33:52.533Z,103391.88
2023-02-11T04:36:19.516Z,103393.69
2023-02-11T04:38:46.452Z,103384.81
2023-02-11T04:41:13.440Z,103383.91
2023-02-11T04:43:40.449Z,103382.69
2023-02-11T04:46:07.508Z,103382.22
2023-02-11T04:48:35.328Z,103377.44
2023-02-11T04:51:02.679Z,103373.25
2023-02-11T04:53:29.659Z,103380.41
2023-02-11T04:56:03.096Z,103385.50
2023-02-11T04:58:30.185Z,103381.09
2023-02-11T05:01:05.141Z,103379.50
2023-02-11T05:03:32.275Z,103377.91
2023-02-11T05:05:59.302Z,103374.25
2023-02-11T05:08:26.260Z,103366.41
2023-02-11T05:10:53.255Z,103363.00
2023-02-11T05:13:20.245Z,103364.81
2023-02-11T05:15:47.213Z,103375.28
2023-02-11T05:18:16.883Z,103365.41
2023-02-11T05:20:44.568Z,103375.84
2023-02-11T05:23:12.008Z,103384.72
2023-02-11T05:25:39.489Z,103381.88
2023-02-11T05:28:07.085Z,103380.88
2023-02-11T05:30:34.116Z,103381.09
2023-02-11T05:33:01.272Z,103374.16
2023-02-11T05:35:28.527Z,103375.63
2023-02-11T05:37:55.596Z,103384.50
2023-02-11T05:40:22.583Z,103386.41
2023-02-11T05:42:49.616Z,103387.22
2023-02-11T05:45:16.635Z,103391.53
2023-02-11T05:47:43.669Z,103403.22
2023-02-11T05:50:10.763Z,103393.34
2023-02-11T05:52:37.944Z,103388.94
2023-02-11T05:55:05.562Z,103386.31
2023-02-11T05:57:32.612Z,103381.88
2023-02-11T05:59:59.577Z,103394.25
2023-02-11T06:02:26.599Z,103389.94
2023-02-11T06:04:53.673Z,103390.75
2023-02-11T06:07:20.734Z,103383.91
2023-02-11T06:09:47.798Z,103383.00
2023-02-11T06:12:14.846Z,103380.41
2023-02-11T06:14:42.138Z,103375.28
2023-02-11T06:17:09.298Z,103371.66
2023-02-11T06:19:36.326Z,103359.47
2023-02-11T06:22:03.755Z,103363.81
2023-02-11T06:24:51.350Z,103367.22
2023-02-11T06:27:18.996Z,103367.22
2023-02-11T06:29:46.506Z,103374.25
2023-02-11T06:32:36.863Z,103382.31
2023-02-11T06:35:01.411Z,103387.56
2023-02-11T06:37:28.416Z,103383.13
2023-02-11T06:39:55.407Z,103381.41
2023-02-11T06:42:22.371Z,103376.97
2023-02-11T06:44:49.362Z,103383.44
2023-02-11T06:47:16.477Z,103387.78
2023-02-11T06:49:43.476Z,103386.75
2023-02-11T06:52:10.576Z,103390.50
2023-02-11T06:54:37.981Z,103391.41
2023-02-11T06:57:04.941Z,103390.59
2023-02-11T06:59:31.951Z,103390.81
2023-02-11T07:01:59.039Z,103380.16
2023-02-11T07:04:26.092Z,103394.25
2023-02-11T07:06:53.030Z,103393.56
2023-02-11T07:09:20.016Z,103394.72
2023-02-11T07:11:46.983Z,103400.97
2023-02-11T07:14:13.940Z,103404.59
2023-02-11T07:16:41.021Z,103409.94
2023-02-11T07:19:08.035Z,103420.28
2023-02-11T07:21:35.134Z,103412.44
2023-02-11T07:24:02.476Z,103420.59
2023-02-11T07:26:29.537Z,103418.91
2023-02-11T07:28:56.514Z,103427.44
2023-02-11T07:31:29.152Z,103424.94
2023-02-11T07:33:59.992Z,103429.47
2023-02-11T07:36:29.326Z,103435.63
2023-02-11T07:38:56.657Z,103432.31
2023-02-11T07:41:26.024Z,103437.44
2023-02-11T07:43:53.265Z,103442.88
2023-02-11T07:46:26.120Z,103441.28
2023-02-11T07:48:54.024Z,103446.63
2023-02-11T07:51:30.421Z,103451.06
2023-02-11T07:54:00.325Z,103454.34
2023-02-11T07:56:28.749Z,103445.81
2023-02-11T07:58:59.726Z,103456.41
2023-02-11T08:01:28.698Z,103455.50
2023-02-11T08:03:58.823Z,103465.16
2023-02-11T08:06:30.370Z,103462.53
2023-02-11T08:08:57.737Z,103455.59
2023-02-11T08:11:28.265Z,103462.09
2023-02-11T08:13:56.587Z,103464.03
2023-02-11T08:16:33.888Z,103464.13
2023-02-11T08:19:04.512Z,103466.75
2023-02-11T08:21:32.140Z,103472.09
2023-02-11T08:24:01.070Z,103474.94
2023-02-11T08:26:31.777Z,103475.63
2023-02-11T08:28:59.541Z,103480.28
2023-02-11T08:31:47.422Z,103489.25
2023-02-11T08:34:18.360Z,103483.13
2023-02-11T08:36:47.343Z,103490.28
2023-02-11T08:39:20.499Z,103490.16
2023-02-11T08:41:51.249Z,103501.75
2023-02-11T08:44:20.458Z,103495.72
2023-02-11T08:46:48.164Z,103495.84
2023-02-11T08:49:16.345Z,103515.97
2023-02-11T08:51:44.437Z,103504.69
2023-02-11T08:54:12.116Z,103504.00
2023-02-11T08:56:39.949Z,103511.09
2023-02-11T08:59:09.135Z,103507.53
2023-02-11T09:01:47.281Z,103512.00
2023-02-11T09:04:14.789Z,103506.78
2023-02-11T09:06:41.858Z,103506.19
2023-02-11T09:09:13.632Z,103505.16
2023-02-11T09:11:42.716Z,103504.38
2023-02-11T09:14:18.389Z,103505.50
2023-02-11T09:16:45.522Z,103504.81
2023-02-11T09:19:12.625Z,103499.47
2023-02-11T09:21:39.911Z,103499.69
2023-02-11T09:24:07.398Z,103498.00
2023-02-11T09:26:36.653Z,103504.16
2023-02-11T09:29:05.056Z,103499.94
2023-02-11T09:31:34.124Z,103499.25
2023-02-11T09:34:05.535Z,103500.38
2023-02-11T09:36:37.593Z,103508.09
2023-02-11T09:39:09.479Z,103511.84
2023-02-11T09:42:07.851Z,103519.00
2023-02-11T09:44:38.936Z,103522.66
2023-02-11T09:47:31.127Z,103515.94
2023-02-11T09:50:07.398Z,103522.91
2023-02-11T09:52:45.226Z,103521.41
2023-02-11T09:55:26.187Z,103521.72
2023-02-11T09:57:53.446Z,103524.44
2023-02-11T10:00:35.038Z,103527.97
2023-02-11T10:03:17.360Z,103535.34
2023-02-11T10:06:02.931Z,103532.84
2023-02-11T10:09:03.708Z,103530.22
2023-02-11T10:12:23.262Z,103543.31
2023-02-11T10:15:14.040Z,103539.56
2023-02-11T10:18:31.586Z,103538.75
2023-02-11T10:22:06.624Z,103535.75
2023-02-11T10:24:35.313Z,103535.06
2023-02-11T10:27:17.817Z,103544.72
2023-02-11T10:29:56.976Z,103550.28
2023-02-11T10:32:53.106Z,103553.22
2023-02-11T10:35:23.740Z,103551.16
2023-02-11T10:37:51.122Z,103553.69
2023-02-11T10:40:28.163Z,103548.56
2023-02-11T10:43:26.740Z,103559.25
2023-02-11T10:45:56.673Z,103559.84
2023-02-11T10:48:53.319Z,103555.63
2023-02-11T10:51:29.439Z,103563.88
2023-02-11T10:54:06.225Z,103571.16
2023-02-11T10:56:39.854Z,103572.97
2023-02-11T10:59:21.667Z,103573.88
2023-02-11T11:02:00.595Z,103573.81
2023-02-11T11:04:30.695Z,103579.97
2023-02-11T11:07:19.871Z,103577.47
2023-02-11T11:10:05.343Z,103579.97
2023-02-11T11:12:49.141Z,103569.72
2023-02-11T11:15:30.382Z,103576.50
2023-02-11T11:18:22.553Z,103569.22
2023-02-11T11:21:07.683Z,103576.00
2023-02-11T11:23:39.825Z,103570.44
2023-02-11T11:26:15.481Z,103579.63
2023-02-11T11:28:46.726Z,103584.97
2023-02-11T11:31:22.937Z,103584.38
2023-02-11T11:33:53.630Z,103582.00
2023-02-11T11:36:32.629Z,103584.63
2023-02-11T11:39:11.084Z,103590.06
2023-02-11T11:41:52.099Z,103585.03
2023-02-11T11:44:40.120Z,103586.66
2023-02-11T11:47:15.762Z,103578.16
2023-02-11T11:50:29.152Z,103586.13
2023-02-11T11:53:16.859Z,103591.00
2023-02-11T11:56:04.584Z,103584.03
2023-02-11T11:58:33.296Z,103585.13
2023-02-11T12:01:40.423Z,103583.31
2023-02-11T12:04:48.370Z,103584.63
2023-02-11T12:07:56.432Z,103588.50
2023-02-11T12:10:48.204Z,103593.94
2023-02-11T12:13:37.342Z,103592.34
2023-02-11T12:16:20.643Z,103590.53
2023-02-11T12:19:07.754Z,103590.53
2023-02-11T12:21:50.402Z,103584.75
2023-02-11T12:24:27.603Z,103587.50
2023-02-11T12:27:15.876Z,103585.88
2023-02-11T12:30:27.065Z,103579.91
2023-02-11T12:33:15.079Z,103589.59
2023-02-11T12:36:11.684Z,103578.41
2023-02-11T12:38:47.440Z,103586.47
2023-02-11T12:41:58.710Z,103576.78
2023-02-11T12:44:46.208Z,103577.00
2023-02-11T12:47:36.269Z,103578.53
2023-02-11T12:50:34.950Z,103582.19
2023-02-11T12:53:34.991Z,103567.94
2023-02-11T12:56:14.631Z,103574.19
2023-02-11T12:58:45.831Z,103569.03
2023-02-11T13:01:30.330Z,103565.50
2023-02-11T13:04:25.840Z,103571.06
2023-02-11T13:06:59.350Z,103563.28
2023-02-11T13:09:55.162Z,103562.66
2023-02-11T13:12:41.520Z,103559.13
2023-02-11T13:15:15.410Z,103552.16
2023-02-11T13:18:30.673Z,103555.59
2023-02-11T13:21:16.461Z,103540.44
2023-02-11T13:24:05.526Z,103538.53
2023-02-11T13:26:37.681Z,103542.28
2023-02-11T13:29:43.168Z,103535.28
2023-02-11T13:32:13.952Z,103535.59
2023-02-11T13:34:43.922Z,103535.59
2023-02-11T13:37:39.721Z,103541.94
2023-02-11T13:40:23.765Z,103533.97
2023-02-11T13:42:56.711Z,103534.88
2023-02-11T13:45:42.954Z,103538.41
2023-02-11T13:48:24.847Z,103533.97
2023-02-11T13:51:10.903Z,103527.88
2023-02-11T13:53:55.820Z,103532.44
2023-02-11T13:56:33.814Z,103531.00
2023-02-11T13:59:04.313Z,103537.78
2023-02-11T14:02:12.848Z,103535.34
2023-02-11T14:05:22.782Z,103543.66
2023-02-11T14:08:38.833Z,103539.59
2023-02-11T14:11:33.775Z,103540.69
2023-02-11T14:14:30.789Z,103547.94
2023-02-11T14:17:06.687Z,103538.56
2023-02-11T14:19:46.301Z,103538.16
2023-02-11T14:22:38.830Z,103536.97
2023-02-11T14:25:23.730Z,103542.28
2023-02-11T14:28:13.142Z,103535.94
2023-02-11T14:30:51.507Z,103537.56
2023-02-11T14:33:29.281Z,103545.84
2023-02-11T14:36:17.591Z,103547.84
2023-02-11T14:39:05.368Z,103546.00
2023-02-11T14:41:53.444Z,103553.28
2023-02-11T14:44:25.580Z,103549.38
2023-02-11T14:46:54.164Z,103549.91
2023-02-11T14:49:25.259Z,103544.31
2023-02-11T14:52:00.253Z,103540.75
2023-02-11T14:54:29.124Z,103539.03
2023-02-11T14:57:17.747Z,103540.75
2023-02-11T15:00:04.295Z,103534.13
2023-02-11T15:02:40.437Z,103536.50
2023-02-11T15:05:27.623Z,103539.94
2023-02-11T15:08:01.858Z,103546.84
2023-02-11T15:10:44.998Z,103539.84
2023-02-11T15:13:27.139Z,103542.84
2023-02-11T15:16:00.111Z,103534.59
2023-02-11T15:18:33.277Z,103535.88
2023-02-11T15:21:00.639Z,103543.56
2023-02-11T15:23:29.925Z,103539.13
2023-02-11T15:25:57.087Z,103541.75
2023-02-11T15:28:31.454Z,103545.38
2023-02-11T15:31:05.802Z,103555.19
2023-02-11T15:33:33.284Z,103564.88
2023-02-11T15:36:03.195Z,103568.22
2023-02-11T15:38:30.481Z,103568.22
2023-02-11T15:41:01.102Z,103564.16
2023-02-11T15:43:49.039Z,103562.69
2023-02-11T15:46:23.600Z,103557.34
2023-02-11T15:48:55.734Z,103555.34
2023-02-11T15:51:38.854Z,103553.53
2023-02-11T15:54:17.189Z,103561.50
2023-02-11T15:56:48.799Z,103557.66
2023-02-11T15:59:30.678Z,103558.38
2023-02-11T16:02:07.209Z,103565.25
2023-02-11T16:04:34.422Z,103572.41
2023-02-11T16:07:01.611Z,103575.75
2023-02-11T16:09:36.827Z,103570.31
2023-02-11T16:12:23.448Z,103572.31
2023-02-11T16:14:50.434Z,103575.03
2023-02-11T16:17:26.824Z,103578.66
2023-02-11T16:19:54.906Z,103579.19
2023-02-11T16:22:30.104Z,103580.81
2023-02-11T16:25:00.365Z,103573.03
2023-02-11T16:27:37.743Z,103574.47
2023-02-11T16:30:06.666Z,103580.50
2023-02-11T16:32:33.766Z,103581.63
2023-02-11T16:35:02.650Z,103577.56
2023-02-11T16:37:29.756Z,103581.34
2023-02-11T16:39:58.256Z,103584.69
2023-02-11T16:42:25.508Z,103593.97
2023-02-11T16:44:52.491Z,103593.34
2023-02-11T16:47:28.454Z,103587.50
2023-02-11T16:49:57.289Z,103601.25
2023-02-11T16:52:25.491Z,103600.63
2023-02-11T16:54:52.659Z,103605.00
2023-02-11T16:57:22.627Z,103597.91
2023-02-11T16:59:49.986Z,103606.19
2023-02-11T17:02:27.950Z,103595.41
2023-02-11T17:04:57.964Z,103597.84
2023-02-11T17:07:25.280Z,103603.69
2023-02-11T17:09:52.363Z,103608.03
2023-02-11T17:12:20.684Z,103603.69
2023-02-11T17:14:47.977Z,103607.69
2023-02-11T17:17:16.303Z,103618.91
2023-02-11T17:19:43.542Z,103611.03
2023-02-11T17:22:11.858Z,103622.31
2023-02-11T17:24:38.841Z,103627.56
2023-02-11T17:27:05.798Z,103634.44
2023-02-11T17:29:32.799Z,103635.25
2023-02-11T17:31:59.879Z,103635.94
2023-02-11T17:34:29.156Z,103645.53
2023-02-11T17:36:57.966Z,103642.09
2023-02-11T17:39:25.885Z,103642.81
2023-02-11T17:41:52.870Z,103651.50
2023-02-11T17:44:19.817Z,103645.44
2023-02-11T17:46:46.939Z,103647.06
2023-02-11T17:49:13.972Z,103648.97
2023-02-11T17:51:41.090Z,103646.16
2023-02-11T17:54:14.810Z,103653.91
2023-02-11T17:56:42.837Z,103655.53
2023-02-11T17:59:13.293Z,103651.91
2023-02-11T18:01:42.053Z,103655.31
2023-02-11T18:04:15.177Z,103656.22
2023-02-11T18:06:42.256Z,103656.94
2023-02-11T18:09:09.310Z,103658.66
2023-02-11T18:11:39.433Z,103656.84
2023-02-11T18:14:10.358Z,103660.56
2023-02-11T18:16:39.450Z,103666.84
2023-02-11T18:19:08.581Z,103678.34
2023-02-11T18:21:35.992Z,103674.81
2023-02-11T18:24:06.789Z,103664.41
2023-02-11T18:26:34.555Z,103666.34
2023-02-11T18:29:01.704Z,103671.28
2023-02-11T18:31:28.838Z,103664.31
2023-02-11T18:33:56.011Z,103668.75
2023-02-11T18:36:23.339Z,103668.66
2023-02-11T18:38:52.650Z,103667.53
2023-02-11T18:41:20.527Z,103662.91
2023-02-11T18:43:47.525Z,103670.75
2023-02-11T18:46:16.462Z,103667.84
2023-02-11T18:48:44.886Z,103667.69
2023-02-11T18:51:15.913Z,103672.28
2023-02-11T18:53:43.471Z,103669.19
2023-02-11T18:56:22.927Z,103680.50
2023-02-11T18:58:51.408Z,103684.84
2023-02-11T19:01:24.415Z,103679.38
2023-02-11T19:03:51.662Z,103683.72
2023-02-11T19:06:26.060Z,103688.75
2023-02-11T19:08:57.579Z,103683.53
2023-02-11T19:11:46.113Z,103690.28
2023-02-11T19:14:15.218Z,103683.09
2023-02-11T19:16:45.956Z,103689.25
2023-02-11T19:19:14.148Z,103688.13
2023-02-11T19:21:46.217Z,103683.59
2023-02-11T19:24:16.147Z,103693.50
2023-02-11T19:26:43.505Z,103685.41
2023-02-11T19:29:10.553Z,103682.69
2023-02-11T19:31:37.733Z,103697.50
2023-02-11T19:34:06.094Z,103689.53
2023-02-11T19:36:33.401Z,103697.97
2023-02-11T19:39:02.283Z,103697.97
2023-02-11T19:41:30.343Z,103701.50
2023-02-11T19:43:57.634Z,103694.31
2023-02-11T19:46:30.266Z,103700.28
2023-02-11T19:48:58.753Z,103695.81
2023-02-11T19:51:25.729Z,103696.75
2023-02-11T19:53:53.886Z,103698.34
2023-02-11T19:56:22.389Z,103698.25
2023-02-11T19:58:49.444Z,103706.81
2023-02-11T20:01:20.738Z,103717.28
2023-02-11T20:03:52.637Z,103711.03
2023-02-11T20:06:26.709Z,103713.53
2023-02-11T20:09:00.272Z,103717.06
2023-02-11T20:11:29.840Z,103712.44
2023-02-11T20:13:58.177Z,103717.66
2023-02-11T20:16:44.522Z,103727.34
2023-02-11T20:19:18.165Z,103736.59
2023-02-11T20:21:47.862Z,103736.81
2023-02-11T20:24:18.911Z,103730.31
2023-02-11T20:26:48.421Z,103727.47
2023-02-11T20:29:17.919Z,103732.59
2023-02-11T20:31:45.193Z,103733.53
2023-02-11T20:34:12.624Z,103739.56
2023-02-11T20:36:40.625Z,103745.81
2023-02-11T20:39:08.839Z,103752.09
2023-02-11T20:41:40.033Z,103741.28
2023-02-11T20:44:10.325Z,103746.75
2023-02-11T20:46:41.237Z,103747.53
2023-02-11T20:49:12.063Z,103743.22
2023-02-11T20:51:39.594Z,103745.94
2023-02-11T20:54:07.208Z,103744.13
2023-02-11T20:56:37.030Z,103749.25
2023-02-11T20:59:05.821Z,103753.63
2023-02-11T21:01:40.815Z,103749.47
2023-02-11T21:04:21.607Z,103745.69
2023-02-11T21:06:54.843Z,103738.34
2023-02-11T21:09:25.765Z,103745.84
2023-02-11T21:11:54.248Z,103738.75
2023-02-11T21:14:24.001Z,103745.53
2023-02-11T21:16:52.470Z,103743.41
2023-02-11T21:19:20.386Z,103746.47
2023-02-11T21:21:47.483Z,103745.00
2023-02-11T21:24:15.840Z,103747.06
2023-02-11T21:26:43.057Z,103745.47
2023-02-11T21:29:10.526Z,103747.66
2023-02-11T21:31:38.120Z,103749.72
2023-02-11T21:34:06.216Z,103750.78
2023-02-11T21:36:33.739Z,103762.41
2023-02-11T21:39:01.933Z,103758.84
2023-02-11T21:41:29.691Z,103758.94
2023-02-11T21:43:57.488Z,103763.47
2023-02-11T21:46:24.615Z,103759.19
2023-02-11T21:48:52.244Z,103768.16
2023-02-11T21:51:23.602Z,103768.25
2023-02-11T21:53:59.712Z,103778.06
2023-02-11T21:56:28.353Z,103772.91
2023-02-11T21:58:58.552Z,103768.56
2023-02-11T22:01:29.853Z,103782.91
2023-02-11T22:03:57.577Z,103791.69
2023-02-11T22:06:31.096Z,103808.00
2023-02-11T22:09:01.840Z,103800.78
2023-02-11T22:11:28.977Z,103795.00
2023-02-11T22:13:57.797Z,103800.91
2023-02-11T22:16:29.980Z,103795.22
2023-02-11T22:18:58.746Z,103799.56
2023-02-11T22:21:28.030Z,103798.75
2023-02-11T22:23:56.182Z,103802.75
2023-02-11T22:26:26.541Z,103804.69
2023-02-11T22:28:54.980Z,103799.34
2023-02-11T22:31:32.061Z,103798.44
2023-02-11T22:34:00.346Z,103792.38
2023-02-11T22:36:41.651Z,103790.69
2023-02-11T22:39:15.668Z,103793.41
2023-02-11T22:41:44.469Z,103786.34
2023-02-11T22:44:12.148Z,103794.31
2023-02-11T22:46:40.133Z,103788.97
2023-02-11T22:49:07.430Z,103791.59
2023-02-11T22:51:34.492Z,103794.09
2023-02-11T22:54:05.445Z,103788.84
2023-02-11T22:56:34.734Z,103797.41
2023-02-11T22:59:05.386Z,103795.00
2023-02-11T23:01:32.577Z,103790.44
2023-02-11T23:04:01.817Z,103795.69
2023-02-11T23:06:28.884Z,103799.78
2023-02-11T23:08:56.311Z,103799.66
2023-02-11T23:11:29.782Z,103801.13
2023-02-11T23:13:57.468Z,103802.59
2023-02-11T23:16:28.342Z,103805.22
2023-02-11T23:18:55.791Z,103810.25
2023-02-11T23:21:27.008Z,103810.25
2023-02-11T23:24:00.401Z,103810.69
2023-02-11T23:26:27.898Z,103815.81
2023-02-11T23:28:55.192Z,103815.81
2023-02-11T23:31:34.127Z,103811.25
2023-02-11T23:34:02.038Z,103807.50
2023-02-11T23:36:29.666Z,103805.22
2023-02-11T23:38:56.734Z,103802.59
2023-02-11T23:41:23.806Z,103808.31
2023-02-11T23:43:53.681Z,103809.91
2023-02-11T23:46:22.173Z,103809.56
2023-02-11T23:48:50.437Z,103811.25
2023-02-11T23:51:18.894Z,103813.41
2023-02-11T23:53:46.406Z,103808.53
2023-02-11T23:56:21.418Z,103799.53
2023-02-11T23:58:50.165Z,103802.94
